sensor_id;sensor_type;location;lat;lon;timestamp;pressure;altitude;pressure_sealevel;temperature;humidity
63665;BME280;49820;33.966;73.390;2022-07-23T00:01:53;78871.88;;;17.64;100.00
63665;BME280;49820;33.966;73.390;2022-07-23T00:04:24;78867.47;;;17.56;100.00
63665;BME280;49820;33.966;73.390;2022-07-23T00:06:55;78865.59;;;17.52;100.00
63665;BME280;49820;33.966;73.390;2022-07-23T00:09:26;78865.50;;;17.54;100.00
63665;BME280;49820;33.966;73.390;2022-07-23T00:11:58;78870.09;;;17.58;100.00
63665;BME280;49820;33.966;73.390;2022-07-23T00:14:29;78872.63;;;17.62;100.00
63665;BME280;49820;33.966;73.390;2022-07-23T00:17:00;78874.09;;;17.59;100.00
63665;BME280;49820;33.966;73.390;2022-07-23T00:19:30;78848.44;;;17.43;100.00
63665;BME280;49820;33.966;73.390;2022-07-23T00:22:00;78879.25;;;17.65;100.00
63665;BME280;49820;33.966;73.390;2022-07-23T00:24:31;78867.56;;;17.54;100.00
63665;BME280;49820;33.966;73.390;2022-07-23T00:27:02;78872.09;;;17.43;100.00
63665;BME280;49820;33.966;73.390;2022-07-23T00:29:33;78878.13;;;17.43;100.00
63665;BME280;49820;33.966;73.390;2022-07-23T00:32:05;78869.19;;;17.32;100.00
63665;BME280;49820;33.966;73.390;2022-07-23T00:34:36;78883.00;;;17.41;100.00
63665;BME280;49820;33.966;73.390;2022-07-23T00:37:07;78882.78;;;17.30;100.00
63665;BME280;49820;33.966;73.390;2022-07-23T00:39:37;78892.00;;;17.35;100.00
63665;BME280;49820;33.966;73.390;2022-07-23T00:42:08;78887.69;;;17.26;100.00
63665;BME280;49820;33.966;73.390;2022-07-23T00:44:38;78884.44;;;17.23;100.00
63665;BME280;49820;33.966;73.390;2022-07-23T00:47:13;78901.50;;;17.34;100.00
63665;BME280;49820;33.966;73.390;2022-07-23T00:49:45;78912.88;;;17.37;100.00
63665;BME280;49820;33.966;73.390;2022-07-23T00:52:16;78910.16;;;17.37;100.00
63665;BME280;49820;33.966;73.390;2022-07-23T00:54:47;78894.31;;;17.29;100.00
63665;BME280;49820;33.966;73.390;2022-07-23T00:57:20;78899.47;;;17.35;100.00
63665;BME280;49820;33.966;73.390;2022-07-23T00:59:56;78875.03;;;17.22;100.00
63665;BME280;49820;33.966;73.390;2022-07-23T01:02:31;78887.25;;;17.36;100.00
63665;BME280;49820;33.966;73.390;2022-07-23T01:05:02;78877.56;;;17.26;100.00
63665;BME280;49820;33.966;73.390;2022-07-23T01:07:36;78856.47;;;17.14;100.00
63665;BME280;49820;33.966;73.390;2022-07-23T01:10:08;78884.66;;;17.34;100.00
63665;BME280;49820;33.966;73.390;2022-07-23T01:13:10;78891.75;;;17.41;100.00
63665;BME280;49820;33.966;73.390;2022-07-23T01:15:40;78882.41;;;17.38;100.00
63665;BME280;49820;33.966;73.390;2022-07-23T01:18:11;78871.88;;;17.32;100.00
63665;BME280;49820;33.966;73.390;2022-07-23T01:20:44;78882.41;;;17.38;100.00
63665;BME280;49820;33.966;73.390;2022-07-23T01:23:16;78860.44;;;17.32;100.00
63665;BME280;49820;33.966;73.390;2022-07-23T01:25:54;78882.06;;;17.46;100.00
63665;BME280;49820;33.966;73.390;2022-07-23T01:28:27;78861.66;;;17.35;100.00
63665;BME280;49820;33.966;73.390;2022-07-23T01:31:00;78870.88;;;17.40;100.00
63665;BME280;49820;33.966;73.390;2022-07-23T01:33:35;78854.66;;;17.25;100.00
63665;BME280;49820;33.966;73.390;2022-07-23T01:36:06;78873.22;;;17.48;100.00
63665;BME280;49820;33.966;73.390;2022-07-23T01:38:37;78878.44;;;17.52;100.00
63665;BME280;49820;33.966;73.390;2022-07-23T01:41:08;78887.44;;;17.63;100.00
63665;BME280;49820;33.966;73.390;2022-07-23T01:43:42;78895.03;;;17.75;100.00
63665;BME280;49820;33.966;73.390;2022-07-23T01:46:13;78888.38;;;17.72;100.00
63665;BME280;49820;33.966;73.390;2022-07-23T01:48:49;78896.13;;;17.80;100.00
63665;BME280;49820;33.966;73.390;2022-07-23T01:51:45;78893.91;;;17.85;100.00
63665;BME280;49820;33.966;73.390;2022-07-23T01:54:49;78899.78;;;17.89;100.00
63665;BME280;49820;33.966;73.390;2022-07-23T01:57:21;78888.13;;;17.93;100.00
63665;BME280;49820;33.966;73.390;2022-07-23T01:59:52;78881.16;;;17.83;100.00
63665;BME280;49820;33.966;73.390;2022-07-23T02:02:24;78903.22;;;17.88;100.00
63665;BME280;49820;33.966;73.390;2022-07-23T02:04:58;78912.38;;;17.95;100.00
63665;BME280;49820;33.966;73.390;2022-07-23T02:07:28;78919.09;;;17.96;100.00
63665;BME280;49820;33.966;73.390;2022-07-23T02:10:02;78928.78;;;18.06;100.00
63665;BME280;49820;33.966;73.390;2022-07-23T02:12:33;78929.81;;;18.13;100.00
63665;BME280;49820;33.966;73.390;2022-07-23T02:15:05;78930.13;;;18.36;100.00
63665;BME280;49820;33.966;73.390;2022-07-23T02:17:39;78933.22;;;18.72;100.00
63665;BME280;49820;33.966;73.390;2022-07-23T02:20:11;78927.38;;;19.10;100.00
63665;BME280;49820;33.966;73.390;2022-07-23T02:22:43;78922.56;;;19.25;100.00
63665;BME280;49820;33.966;73.390;2022-07-23T02:25:14;78924.63;;;19.24;100.00
63665;BME280;49820;33.966;73.390;2022-07-23T02:27:45;78933.75;;;19.31;100.00
63665;BME280;49820;33.966;73.390;2022-07-23T02:30:16;78937.81;;;19.18;100.00
63665;BME280;49820;33.966;73.390;2022-07-23T02:32:47;78936.84;;;19.23;100.00
63665;BME280;49820;33.966;73.390;2022-07-23T02:35:20;78938.09;;;19.12;100.00
63665;BME280;49820;33.966;73.390;2022-07-23T02:37:50;78939.03;;;19.21;100.00
63665;BME280;49820;33.966;73.390;2022-07-23T02:40:21;78943.13;;;19.20;100.00
63665;BME280;49820;33.966;73.390;2022-07-23T02:42:55;78934.53;;;19.15;100.00
63665;BME280;49820;33.966;73.390;2022-07-23T02:45:28;78947.94;;;19.32;100.00
63665;BME280;49820;33.966;73.390;2022-07-23T02:48:00;78936.97;;;19.06;100.00
63665;BME280;49820;33.966;73.390;2022-07-23T02:50:32;78953.97;;;19.20;100.00
63665;BME280;49820;33.966;73.390;2022-07-23T02:53:03;78945.31;;;19.02;100.00
63665;BME280;49820;33.966;73.390;2022-07-23T02:55:35;78956.72;;;18.76;100.00
63665;BME280;49820;33.966;73.390;2022-07-23T02:58:07;78960.38;;;18.70;100.00
63665;BME280;49820;33.966;73.390;2022-07-23T03:00:38;78970.19;;;18.63;100.00
63665;BME280;49820;33.966;73.390;2022-07-23T03:03:10;78967.34;;;18.65;100.00
63665;BME280;49820;33.966;73.390;2022-07-23T03:05:41;78953.56;;;18.71;100.00
63665;BME280;49820;33.966;73.390;2022-07-23T03:08:12;78966.06;;;18.79;100.00
63665;BME280;49820;33.966;73.390;2022-07-23T03:10:49;78960.09;;;18.76;100.00
63665;BME280;49820;33.966;73.390;2022-07-23T03:13:20;78973.16;;;18.72;100.00
63665;BME280;49820;33.966;73.390;2022-07-23T03:15:52;78978.19;;;18.65;100.00
63665;BME280;49820;33.966;73.390;2022-07-23T03:18:23;78960.06;;;18.47;100.00
63665;BME280;49820;33.966;73.390;2022-07-23T03:20:55;78976.69;;;18.68;100.00
63665;BME280;49820;33.966;73.390;2022-07-23T03:23:30;78963.81;;;18.83;100.00
63665;BME280;49820;33.966;73.390;2022-07-23T03:26:03;78975.47;;;19.09;100.00
63665;BME280;49820;33.966;73.390;2022-07-23T03:28:35;78974.31;;;19.19;100.00
63665;BME280;49820;33.966;73.390;2022-07-23T03:31:06;78967.25;;;19.11;100.00
63665;BME280;49820;33.966;73.390;2022-07-23T03:33:39;78964.41;;;19.28;100.00
63665;BME280;49820;33.966;73.390;2022-07-23T03:36:09;78965.25;;;19.24;100.00
63665;BME280;49820;33.966;73.390;2022-07-23T03:38:44;78969.13;;;19.57;100.00
63665;BME280;49820;33.966;73.390;2022-07-23T03:41:19;78941.53;;;19.67;100.00
63665;BME280;49820;33.966;73.390;2022-07-23T03:43:50;78968.06;;;20.32;100.00
63665;BME280;49820;33.966;73.390;2022-07-23T03:46:20;78964.88;;;20.42;100.00
63665;BME280;49820;33.966;73.390;2022-07-23T03:48:52;78972.38;;;20.79;100.00
63665;BME280;49820;33.966;73.390;2022-07-23T03:51:26;78966.50;;;20.49;100.00
63665;BME280;49820;33.966;73.390;2022-07-23T03:53:57;78975.56;;;20.31;100.00
63665;BME280;49820;33.966;73.390;2022-07-23T03:56:28;78965.31;;;20.19;100.00
63665;BME280;49820;33.966;73.390;2022-07-23T03:58:59;78973.13;;;20.12;100.00
63665;BME280;49820;33.966;73.390;2022-07-23T04:01:31;78968.81;;;20.30;100.00
63665;BME280;49820;33.966;73.390;2022-07-23T04:04:03;78990.03;;;20.40;100.00
63665;BME280;49820;33.966;73.390;2022-07-23T04:06:34;78978.03;;;20.23;100.00
63665;BME280;49820;33.966;73.390;2022-07-23T04:09:06;78992.09;;;20.12;100.00
63665;BME280;49820;33.966;73.390;2022-07-23T04:11:37;78986.00;;;19.99;100.00
63665;BME280;49820;33.966;73.390;2022-07-23T04:14:08;78999.16;;;20.07;100.00
63665;BME280;49820;33.966;73.390;2022-07-23T04:16:42;78984.91;;;19.94;100.00
63665;BME280;49820;33.966;73.390;2022-07-23T04:19:13;78997.84;;;20.06;100.00
63665;BME280;49820;33.966;73.390;2022-07-23T04:22:01;79007.63;;;19.87;100.00
63665;BME280;49820;33.966;73.390;2022-07-23T04:24:34;79001.78;;;19.95;100.00
63665;BME280;49820;33.966;73.390;2022-07-23T04:27:05;78979.41;;;19.81;100.00
63665;BME280;49820;33.966;73.390;2022-07-23T04:29:36;79005.47;;;19.89;100.00
63665;BME280;49820;33.966;73.390;2022-07-23T04:32:07;78996.25;;;19.84;100.00
63665;BME280;49820;33.966;73.390;2022-07-23T04:34:38;78998.53;;;19.65;100.00
63665;BME280;49820;33.966;73.390;2022-07-23T04:37:09;78994.16;;;19.57;100.00
63665;BME280;49820;33.966;73.390;2022-07-23T04:39:40;79001.59;;;19.29;100.00
63665;BME280;49820;33.966;73.390;2022-07-23T04:42:15;78995.53;;;19.29;100.00
63665;BME280;49820;33.966;73.390;2022-07-23T04:44:49;78999.44;;;19.17;100.00
63665;BME280;49820;33.966;73.390;2022-07-23T04:47:23;79000.66;;;19.20;100.00
63665;BME280;49820;33.966;73.390;2022-07-23T04:49:57;79003.28;;;18.93;100.00
63665;BME280;49820;33.966;73.390;2022-07-23T04:52:29;79002.28;;;18.71;100.00
63665;BME280;49820;33.966;73.390;2022-07-23T04:55:01;79001.25;;;18.64;100.00
63665;BME280;49820;33.966;73.390;2022-07-23T04:57:33;78988.25;;;18.52;100.00
63665;BME280;49820;33.966;73.390;2022-07-23T05:00:04;79003.38;;;18.61;100.00
63665;BME280;49820;33.966;73.390;2022-07-23T05:02:36;78998.06;;;18.59;100.00
63665;BME280;49820;33.966;73.390;2022-07-23T05:05:08;78973.63;;;18.61;100.00
63665;BME280;49820;33.966;73.390;2022-07-23T05:07:41;78994.81;;;18.72;100.00
63665;BME280;49820;33.966;73.390;2022-07-23T05:10:13;78985.66;;;18.79;100.00
63665;BME280;49820;33.966;73.390;2022-07-23T05:12:44;78984.25;;;18.95;100.00
63665;BME280;49820;33.966;73.390;2022-07-23T05:15:17;78973.31;;;18.82;100.00
63665;BME280;49820;33.966;73.390;2022-07-23T05:17:48;78980.50;;;18.73;100.00
63665;BME280;49820;33.966;73.390;2022-07-23T05:20:19;78986.41;;;18.78;100.00
63665;BME280;49820;33.966;73.390;2022-07-23T05:22:51;78996.00;;;18.89;100.00
63665;BME280;49820;33.966;73.390;2022-07-23T05:25:25;78996.66;;;18.75;100.00
63665;BME280;49820;33.966;73.390;2022-07-23T05:27:56;78979.88;;;18.58;100.00
63665;BME280;49820;33.966;73.390;2022-07-23T05:30:28;78980.84;;;18.50;100.00
63665;BME280;49820;33.966;73.390;2022-07-23T05:33:06;78970.88;;;18.47;100.00
63665;BME280;49820;33.966;73.390;2022-07-23T05:35:40;78997.13;;;18.94;100.00
63665;BME280;49820;33.966;73.390;2022-07-23T05:38:43;78989.47;;;18.99;100.00
63665;BME280;49820;33.966;73.390;2022-07-23T05:41:15;78992.00;;;19.03;100.00
63665;BME280;49820;33.966;73.390;2022-07-23T05:43:47;78998.06;;;19.18;100.00
63665;BME280;49820;33.966;73.390;2022-07-23T05:46:35;78985.72;;;19.06;100.00
63665;BME280;49820;33.966;73.390;2022-07-23T05:49:13;78961.84;;;18.96;100.00
63665;BME280;49820;33.966;73.390;2022-07-23T05:51:57;78989.16;;;19.34;100.00
63665;BME280;49820;33.966;73.390;2022-07-23T05:54:53;78983.78;;;19.62;100.00
63665;BME280;49820;33.966;73.390;2022-07-23T05:57:28;78994.31;;;19.95;100.00
63665;BME280;49820;33.966;73.390;2022-07-23T06:00:01;78971.75;;;19.86;100.00
63665;BME280;49820;33.966;73.390;2022-07-23T06:02:43;78977.78;;;19.87;100.00
63665;BME280;49820;33.966;73.390;2022-07-23T06:05:24;78985.59;;;19.80;100.00
63665;BME280;49820;33.966;73.390;2022-07-23T06:07:57;78978.00;;;19.55;100.00
63665;BME280;49820;33.966;73.390;2022-07-23T06:10:29;78976.09;;;19.66;100.00
63665;BME280;49820;33.966;73.390;2022-07-23T06:13:00;78955.25;;;19.63;100.00
63665;BME280;49820;33.966;73.390;2022-07-23T06:15:33;78960.84;;;20.13;100.00
63665;BME280;49820;33.966;73.390;2022-07-23T06:18:04;78970.84;;;20.70;100.00
63665;BME280;49820;33.966;73.390;2022-07-23T06:20:35;78970.88;;;20.95;100.00
63665;BME280;49820;33.966;73.390;2022-07-23T06:23:06;78968.47;;;21.02;100.00
63665;BME280;49820;33.966;73.390;2022-07-23T06:25:38;78960.00;;;20.82;100.00
63665;BME280;49820;33.966;73.390;2022-07-23T06:28:10;78945.59;;;20.33;100.00
63665;BME280;49820;33.966;73.390;2022-07-23T06:30:42;78973.13;;;20.12;100.00
63665;BME280;49820;33.966;73.390;2022-07-23T06:33:13;78975.75;;;19.87;100.00
63665;BME280;49820;33.966;73.390;2022-07-23T06:35:47;78932.19;;;19.64;100.00
63665;BME280;49820;33.966;73.390;2022-07-23T06:38:18;78964.16;;;19.89;100.00
63665;BME280;49820;33.966;73.390;2022-07-23T06:40:51;78963.19;;;19.94;100.00
63665;BME280;49820;33.966;73.390;2022-07-23T06:43:22;78958.47;;;19.80;100.00
63665;BME280;49820;33.966;73.390;2022-07-23T06:45:55;78933.81;;;19.71;100.00
63665;BME280;49820;33.966;73.390;2022-07-23T06:48:27;78957.06;;;20.08;100.00
63665;BME280;49820;33.966;73.390;2022-07-23T06:50:59;78950.19;;;19.97;100.00
63665;BME280;49820;33.966;73.390;2022-07-23T06:53:31;78949.44;;;20.11;100.00
63665;BME280;49820;33.966;73.390;2022-07-23T06:56:04;78946.06;;;20.38;100.00
63665;BME280;49820;33.966;73.390;2022-07-23T06:58:39;78937.91;;;20.38;100.00
63665;BME280;49820;33.966;73.390;2022-07-23T07:01:10;78931.16;;;20.24;100.00
63665;BME280;49820;33.966;73.390;2022-07-23T07:03:42;78923.19;;;20.35;100.00
63665;BME280;49820;33.966;73.390;2022-07-23T07:06:15;78932.53;;;20.50;100.00
63665;BME280;49820;33.966;73.390;2022-07-23T07:08:47;78934.69;;;20.48;100.00
63665;BME280;49820;33.966;73.390;2022-07-23T07:11:19;78921.94;;;20.32;100.00
63665;BME280;49820;33.966;73.390;2022-07-23T07:13:51;78930.41;;;20.26;100.00
63665;BME280;49820;33.966;73.390;2022-07-23T07:16:24;78924.19;;;20.02;100.00
63665;BME280;49820;33.966;73.390;2022-07-23T07:19:00;78907.78;;;19.64;100.00
63665;BME280;49820;33.966;73.390;2022-07-23T07:21:38;78922.09;;;19.62;100.00
63665;BME280;49820;33.966;73.390;2022-07-23T07:24:09;78930.63;;;19.54;100.00
63665;BME280;49820;33.966;73.390;2022-07-23T07:26:40;78942.66;;;19.57;100.00
63665;BME280;49820;33.966;73.390;2022-07-23T07:29:10;78936.53;;;19.44;100.00
63665;BME280;49820;33.966;73.390;2022-07-23T07:31:42;78930.56;;;19.41;100.00
63665;BME280;49820;33.966;73.390;2022-07-23T07:34:13;78935.16;;;19.30;100.00
63665;BME280;49820;33.966;73.390;2022-07-23T07:36:48;78919.41;;;19.20;100.00
63665;BME280;49820;33.966;73.390;2022-07-23T07:39:22;78917.25;;;19.23;100.00
63665;BME280;49820;33.966;73.390;2022-07-23T07:41:54;78912.47;;;19.23;100.00
63665;BME280;49820;33.966;73.390;2022-07-23T07:44:24;78900.53;;;19.18;100.00
63665;BME280;49820;33.966;73.390;2022-07-23T07:46:58;78897.28;;;19.16;100.00
63665;BME280;49820;33.966;73.390;2022-07-23T07:49:29;78883.47;;;19.07;100.00
63665;BME280;49820;33.966;73.390;2022-07-23T07:52:03;78888.63;;;19.13;100.00
63665;BME280;49820;33.966;73.390;2022-07-23T07:54:37;78884.75;;;19.23;100.00
63665;BME280;49820;33.966;73.390;2022-07-23T07:57:10;78885.41;;;19.23;100.00
63665;BME280;49820;33.966;73.390;2022-07-23T07:59:42;78886.66;;;19.39;100.00
63665;BME280;49820;33.966;73.390;2022-07-23T08:02:17;78866.28;;;19.40;100.00
63665;BME280;49820;33.966;73.390;2022-07-23T08:04:49;78867.09;;;19.51;100.00
63665;BME280;49820;33.966;73.390;2022-07-23T08:07:20;78856.44;;;19.74;100.00
63665;BME280;49820;33.966;73.390;2022-07-23T08:09:50;78849.38;;;19.67;100.00
63665;BME280;49820;33.966;73.390;2022-07-23T08:12:22;78863.75;;;19.63;100.00
63665;BME280;49820;33.966;73.390;2022-07-23T08:14:54;78866.59;;;19.61;100.00
63665;BME280;49820;33.966;73.390;2022-07-23T08:17:24;78857.00;;;19.50;100.00
63665;BME280;49820;33.966;73.390;2022-07-23T08:19:58;78857.13;;;19.48;100.00
63665;BME280;49820;33.966;73.390;2022-07-23T08:22:46;78863.66;;;19.65;100.00
63665;BME280;49820;33.966;73.390;2022-07-23T08:25:25;78860.06;;;19.56;100.00
63665;BME280;49820;33.966;73.390;2022-07-23T08:27:57;78859.47;;;19.68;100.00
63665;BME280;49820;33.966;73.390;2022-07-23T08:30:29;78864.25;;;19.80;100.00
63665;BME280;49820;33.966;73.390;2022-07-23T08:33:12;78856.66;;;19.83;100.00
63665;BME280;49820;33.966;73.390;2022-07-23T08:36:04;78851.00;;;19.74;100.00
63665;BME280;49820;33.966;73.390;2022-07-23T08:38:36;78850.34;;;19.74;100.00
63665;BME280;49820;33.966;73.390;2022-07-23T08:41:08;78852.50;;;19.71;100.00
63665;BME280;49820;33.966;73.390;2022-07-23T08:43:40;78853.63;;;19.76;100.00
63665;BME280;49820;33.966;73.390;2022-07-23T08:46:13;78840.94;;;19.86;100.00
63665;BME280;49820;33.966;73.390;2022-07-23T08:48:47;78847.78;;;19.85;100.00
63665;BME280;49820;33.966;73.390;2022-07-23T08:51:20;78837.88;;;19.79;100.00
63665;BME280;49820;33.966;73.390;2022-07-23T08:53:53;78840.16;;;19.74;100.00
63665;BME280;49820;33.966;73.390;2022-07-23T08:56:24;78839.50;;;19.74;100.00
63665;BME280;49820;33.966;73.390;2022-07-23T08:58:56;78830.06;;;19.73;100.00
63665;BME280;49820;33.966;73.390;2022-07-23T09:01:28;78836.47;;;19.67;100.00
63665;BME280;49820;33.966;73.390;2022-07-23T09:04:01;78836.13;;;19.61;100.00
63665;BME280;49820;33.966;73.390;2022-07-23T09:06:32;78841.13;;;19.69;100.00
63665;BME280;49820;33.966;73.390;2022-07-23T09:09:19;78832.22;;;19.70;100.00
63665;BME280;49820;33.966;73.390;2022-07-23T09:12:08;78814.00;;;19.56;100.00
63665;BME280;49820;33.966;73.390;2022-07-23T09:14:44;78816.59;;;19.58;100.00
63665;BME280;49820;33.966;73.390;2022-07-23T09:17:18;78817.41;;;19.69;100.00
63665;BME280;49820;33.966;73.390;2022-07-23T09:19:50;78809.22;;;19.57;100.00
63665;BME280;49820;33.966;73.390;2022-07-23T09:22:26;78807.78;;;19.45;100.00
63665;BME280;49820;33.966;73.390;2022-07-23T09:27:53;78802.22;;;19.62;100.00
63665;BME280;49820;33.966;73.390;2022-07-23T09:30:27;78802.75;;;19.64;100.00
63665;BME280;49820;33.966;73.390;2022-07-23T09:33:10;78809.38;;;19.80;100.00
63665;BME280;49820;33.966;73.390;2022-07-23T09:35:50;78808.53;;;20.09;100.00
63665;BME280;49820;33.966;73.390;2022-07-23T09:38:23;78801.81;;;20.33;100.00
63665;BME280;49820;33.966;73.390;2022-07-23T09:41:07;78794.81;;;20.74;100.00
63665;BME280;49820;33.966;73.390;2022-07-23T09:43:37;78807.88;;;21.08;100.00
63665;BME280;49820;33.966;73.390;2022-07-23T09:46:25;78799.31;;;21.03;100.00
63665;BME280;49820;33.966;73.390;2022-07-23T09:48:56;78791.66;;;21.18;100.00
63665;BME280;49820;33.966;73.390;2022-07-23T09:51:27;78776.56;;;21.09;100.00
63665;BME280;49820;33.966;73.390;2022-07-23T09:57:06;78792.75;;;21.23;100.00
63665;BME280;49820;33.966;73.390;2022-07-23T09:59:42;78771.06;;;21.34;100.00
63665;BME280;49820;33.966;73.390;2022-07-23T10:02:18;78757.06;;;21.29;100.00
63665;BME280;49820;33.966;73.390;2022-07-23T10:05:15;78766.63;;;21.75;100.00
63665;BME280;49820;33.966;73.390;2022-07-23T10:08:04;78777.44;;;21.88;100.00
63665;BME280;49820;33.966;73.390;2022-07-23T10:10:54;78768.75;;;21.85;100.00
63665;BME280;49820;33.966;73.390;2022-07-23T10:13:47;78763.03;;;21.79;100.00
63665;BME280;49820;33.966;73.390;2022-07-23T10:17:03;78750.19;;;21.77;100.00
63665;BME280;49820;33.966;73.390;2022-07-23T10:19:36;78748.41;;;21.84;100.00
63665;BME280;49820;33.966;73.390;2022-07-23T10:31:31;78732.66;;;21.17;100.00
63665;BME280;49820;33.966;73.390;2022-07-23T10:34:42;78727.03;;;21.08;100.00
63665;BME280;49820;33.966;73.390;2022-07-23T10:37:26;78741.28;;;20.73;100.00
63665;BME280;49820;33.966;73.390;2022-07-23T10:40:18;78720.38;;;20.59;100.00
63665;BME280;49820;33.966;73.390;2022-07-23T10:42:51;78739.34;;;20.71;100.00
63665;BME280;49820;33.966;73.390;2022-07-23T10:45:36;78718.63;;;20.53;100.00
63665;BME280;49820;33.966;73.390;2022-07-23T10:48:18;78725.72;;;20.35;100.00
63665;BME280;49820;33.966;73.390;2022-07-23T10:51:14;78734.41;;;20.12;100.00
63665;BME280;49820;33.966;73.390;2022-07-23T10:53:53;78734.72;;;20.32;100.00
63665;BME280;49820;33.966;73.390;2022-07-23T10:59:30;78714.78;;;20.12;100.00
63665;BME280;49820;33.966;73.390;2022-07-23T11:02:22;78727.16;;;20.34;100.00
63665;BME280;49820;33.966;73.390;2022-07-23T11:05:09;78720.84;;;20.38;100.00
63665;BME280;49820;33.966;73.390;2022-07-23T11:11:14;78722.91;;;20.12;100.00
63665;BME280;49820;33.966;73.390;2022-07-23T11:13:48;78725.31;;;20.05;100.00
63665;BME280;49820;33.966;73.390;2022-07-23T11:16:25;78717.63;;;19.97;100.00
63665;BME280;49820;33.966;73.390;2022-07-23T11:18:58;78712.09;;;19.87;100.00
63665;BME280;49820;33.966;73.390;2022-07-23T11:24:13;78694.00;;;19.58;100.00
63665;BME280;49820;33.966;73.390;2022-07-23T11:32:06;78708.50;;;19.39;100.00
63665;BME280;49820;33.966;73.390;2022-07-23T11:34:46;78694.41;;;19.24;100.00
63665;BME280;49820;33.966;73.390;2022-07-23T11:37:28;78706.00;;;19.35;100.00
63665;BME280;49820;33.966;73.390;2022-07-23T11:39:59;78704.25;;;19.30;100.00
